Time;durP1;ratioP1;P1;durP2;ratioP2;P2;SDS_P1;SDS_P2;PMS_P1;PMS_P2;Temp;Humidity;BMP_temperature;BMP_pressure;BME280_temperature;BME280_humidity;BME280_pressure;Samples;Min_cycle;Max_cycle;Signal;HPM_P1;HPM_P2
2023/11/02 00:02:21;;;;;;;61.05;58.45;;;;;;;7.46;100.00;100945.91;5051171;28;20048;-90
2023/11/02 00:04:49;;;;;;;59.25;56.65;;;;;;;7.69;100.00;100955.63;5032271;28;20048;-90
2023/11/02 00:07:16;;;;;;;72.40;69.22;;;;;;;7.51;100.00;100946.22;5047625;28;20057;-90
2023/11/02 00:09:43;;;;;;;58.65;55.83;;;;;;;7.55;100.00;100936.09;5041606;28;20045;-90
2023/11/02 00:12:13;;;;;;;51.42;49.08;;;;;;;7.68;100.00;100925.69;5047383;28;20504;-90
2023/11/02 00:14:45;;;;;;;42.08;40.17;;;;;;;7.92;100.00;100929.91;5042498;28;20053;-90
2023/11/02 00:17:49;;;;;;;39.50;37.40;;;;;;;7.70;100.00;100934.28;5044333;28;20059;-90
2023/11/02 00:20:36;;;;;;;57.05;54.45;;;;;;;8.03;100.00;100934.72;4983307;28;20050;-90
2023/11/02 00:23:13;;;;;;;66.72;63.72;;;;;;;8.09;100.00;100935.00;4981592;28;20051;-90
2023/11/02 00:25:46;;;;;;;46.28;43.97;;;;;;;7.54;100.00;100931.81;5024484;28;20043;-90
2023/11/02 00:28:13;;;;;;;43.35;41.42;;;;;;;6.78;100.00;100944.16;5047836;28;20055;-90
2023/11/02 00:30:45;;;;;;;48.67;46.47;;;;;;;7.30;100.00;100948.72;5052564;28;20052;-90
2023/11/02 00:33:14;;;;;;;67.75;64.65;;;;;;;7.90;100.00;100937.22;5044634;28;20049;-90
2023/11/02 00:35:46;;;;;;;56.03;53.42;;;;;;;7.93;100.00;100936.03;5035554;28;20061;-90
2023/11/02 00:38:25;;;;;;;53.03;50.43;;;;;;;7.73;100.00;100935.75;5043614;28;20056;-90
2023/11/02 00:40:52;;;;;;;51.85;49.25;;;;;;;6.54;100.00;100934.59;5043867;28;20970;-90
2023/11/02 00:43:21;;;;;;;59.78;56.95;;;;;;;6.88;100.00;100934.19;5044013;28;20052;-89
2023/11/02 00:45:49;;;;;;;58.30;55.60;;;;;;;7.46;100.00;100927.41;5038940;28;20100;-90
2023/11/02 00:48:20;;;;;;;57.25;54.55;;;;;;;7.75;100.00;100920.53;5047764;28;20043;-90
2023/11/02 00:51:25;;;;;;;69.10;66.10;;;;;;;7.70;100.00;100928.16;5044358;28;20049;-90
2023/11/02 00:53:55;;;;;;;49.08;46.78;;;;;;;7.69;100.00;100931.84;5040123;28;20072;-90
2023/11/02 00:56:22;;;;;;;54.08;51.60;;;;;;;6.94;100.00;100915.00;5036267;28;20067;-89
2023/11/02 00:58:53;;;;;;;59.30;56.50;;;;;;;7.38;100.00;100914.28;5036611;28;20535;-90
2023/11/02 01:01:21;;;;;;;57.53;55.03;;;;;;;7.57;100.00;100918.22;5038273;28;20573;-90
2023/11/02 01:03:52;;;;;;;67.82;64.93;;;;;;;7.60;100.00;100925.81;5046573;28;20052;-90
2023/11/02 01:06:21;;;;;;;53.40;51.00;;;;;;;7.73;100.00;100919.88;5032099;28;20052;-90
2023/11/02 01:09:04;;;;;;;49.33;47.03;;;;;;;6.66;100.00;100922.63;5030619;28;20045;-90
2023/11/02 01:11:36;;;;;;;48.22;45.95;;;;;;;7.02;100.00;100916.75;5033321;28;20045;-91
2023/11/02 01:14:29;;;;;;;44.08;41.88;;;;;;;6.91;100.00;100906.63;5035405;28;20045;-90
2023/11/02 01:16:56;;;;;;;;;;;;;;;7.44;100.00;100910.91;5037051;28;20041;-90
2023/11/02 01:19:54;;;;;;;52.38;49.88;;;;;;;7.75;100.00;100915.25;5039006;28;19928;-90
2023/11/02 01:22:50;;;;;;;52.17;49.58;;;;;;;7.78;100.00;100914.88;5028214;28;20084;-90
2023/11/02 01:25:24;;;;;;;53.58;51.08;;;;;;;7.75;100.00;100905.47;5037972;28;20049;-90
2023/11/02 01:27:59;;;;;;;54.88;52.28;;;;;;;6.99;100.00;100906.53;5044377;28;20049;-90
2023/11/02 01:31:13;;;;;;;49.67;47.08;;;;;;;6.89;100.00;100899.66;5038935;28;20113;-89
2023/11/02 01:33:58;;;;;;;49.22;46.72;;;;;;;7.47;100.00;100894.69;5047116;28;20045;-90
2023/11/02 01:36:38;;;;;;;62.22;59.03;;;;;;;7.66;100.00;100896.00;5045897;28;20045;-90
2023/11/02 01:39:51;;;;;;;66.78;63.38;;;;;;;7.71;100.00;100887.50;5044603;28;20060;-90
2023/11/02 01:42:23;;;;;;;58.90;56.00;;;;;;;7.61;100.00;100881.69;5039592;28;20057;-90
2023/11/02 01:45:10;;;;;;;45.03;42.72;;;;;;;7.36;100.00;100879.28;5040786;28;20045;-89
2023/11/02 01:47:54;;;;;;;55.55;52.85;;;;;;;7.46;100.00;100876.38;5033946;28;20084;-90
2023/11/02 01:50:35;;;;;;;51.03;48.53;;;;;;;7.35;100.00;100875.00;5044314;28;20060;-90
2023/11/02 01:53:34;;;;;;;56.58;53.88;;;;;;;7.24;100.00;100868.34;5046335;28;20049;-90
2023/11/02 01:56:25;;;;;;;54.65;51.95;;;;;;;7.19;100.00;100859.31;5046616;28;20045;-89
2023/11/02 01:59:09;;;;;;;61.08;58.17;;;;;;;7.42;100.00;100869.84;5047327;28;20052;-90
2023/11/02 02:01:42;;;;;;;54.35;51.80;;;;;;;7.10;100.00;100866.50;5046552;28;20524;-90
2023/11/02 02:04:35;;;;;;;44.92;42.72;;;;;;;7.11;100.00;100865.50;5045581;28;20046;-90
2023/11/02 02:07:10;;;;;;;59.05;56.25;;;;;;;7.04;100.00;100865.38;5038501;28;20037;-90
2023/11/02 02:10:01;;;;;;;51.95;49.15;;;;;;;7.30;100.00;100859.69;5042977;28;20160;-90
2023/11/02 02:12:43;;;;;;;45.03;42.63;;;;;;;7.02;100.00;100848.06;5043603;28;20053;-90
2023/11/02 02:15:18;;;;;;;55.20;52.40;;;;;;;7.18;100.00;100842.66;5041749;28;20045;-90
2023/11/02 02:17:55;;;;;;;46.63;44.22;;;;;;;7.20;100.00;100847.75;5043052;28;20050;-91
2023/11/02 02:20:24;;;;;;;50.15;47.65;;;;;;;6.58;100.00;100854.06;5050258;28;20107;-90
2023/11/02 02:23:15;;;;;;;48.13;45.67;;;;;;;6.37;100.00;100871.34;5038624;28;20045;-90
2023/11/02 02:25:53;;;;;;;54.83;52.13;;;;;;;7.36;100.00;100865.28;5044190;28;20053;-90
2023/11/02 02:28:57;;;;;;;54.88;52.22;;;;;;;7.42;100.00;100865.38;5044608;28;20514;-90
2023/11/02 02:31:48;;;;;;;53.42;50.72;;;;;;;7.53;100.00;100851.69;5024296;28;20064;-90
2023/11/02 02:34:48;;;;;;;52.33;49.33;;;;;;;7.55;100.00;100851.50;5050612;28;20065;-90
2023/11/02 02:37:21;;;;;;;48.15;45.55;;;;;;;7.54;100.00;100847.22;5043543;28;20068;-90
2023/11/02 02:39:52;;;;;;;;;;;;;;;7.15;100.00;100847.47;5044605;28;20037;-90
2023/11/02 02:42:21;;;;;;;40.53;38.38;;;;;;;6.52;100.00;100846.84;5045977;28;19921;-90
2023/11/02 02:44:51;;;;;;;42.38;40.17;;;;;;;7.46;100.00;100839.38;5050116;28;20059;-90
2023/11/02 02:47:38;;;;;;;37.85;35.85;;;;;;;7.44;100.00;100828.97;5046731;28;20102;-92
2023/11/02 02:50:09;;;;;;;39.00;36.80;;;;;;;7.64;100.00;100817.88;5040229;28;20499;-91
2023/11/02 02:52:45;;;;;;;53.63;51.13;;;;;;;7.69;100.00;100821.59;5050379;28;20076;-91
2023/11/02 02:55:16;;;;;;;43.95;41.85;;;;;;;6.56;100.00;100816.47;5037197;28;20061;-90
2023/11/02 02:57:52;;;;;;;50.67;48.28;;;;;;;6.65;100.00;100823.31;5041341;28;20519;-91
2023/11/02 03:00:23;;;;;;;49.80;47.30;;;;;;;7.27;100.00;100817.78;5049655;28;20053;-91
2023/11/02 03:03:30;;;;;;;55.20;52.80;;;;;;;7.89;100.00;100813.09;5042043;28;20052;-91
2023/11/02 03:06:07;;;;;;;61.08;58.38;;;;;;;8.15;100.00;100804.63;5045605;28;20045;-91
2023/11/02 03:08:36;;;;;;;49.38;47.08;;;;;;;8.18;100.00;100802.41;5039368;28;20053;-90
2023/11/02 03:11:06;;;;;;;48.65;46.50;;;;;;;7.98;100.00;100796.91;5040942;28;20075;-91
2023/11/02 03:13:33;;;;;;;56.38;53.88;;;;;;;7.63;100.00;100792.44;5052374;28;20053;-91
2023/11/02 03:16:02;;;;;;;58.42;53.55;;;;;;;7.74;100.00;100789.31;5050006;28;20534;-91
2023/11/02 03:18:53;;;;;;;50.15;47.75;;;;;;;7.36;100.00;100789.47;5048261;28;20485;-90
2023/11/02 03:21:21;;;;;;;49.00;46.60;;;;;;;7.86;100.00;100793.09;5048467;28;20040;-90
2023/11/02 03:23:53;;;;;;;51.50;49.00;;;;;;;8.12;100.00;100773.25;5045345;28;20434;-91
2023/11/02 03:26:25;;;;;;;60.07;57.27;;;;;;;8.27;100.00;100772.19;5040543;28;20050;-90
2023/11/02 03:29:06;;;;;;;57.45;54.75;;;;;;;7.93;100.00;100762.28;5036153;28;20058;-91
2023/11/02 03:31:46;;;;;;;63.85;61.05;;;;;;;7.94;100.00;100769.22;5048462;28;20060;-91
2023/11/02 03:34:20;;;;;;;51.63;49.17;;;;;;;8.19;100.00;100760.91;5044212;28;20076;-91
2023/11/02 03:37:05;;;;;;;49.55;47.33;;;;;;;8.42;100.00;100752.81;5039598;28;20045;-90
2023/11/02 03:39:49;;;;;;;54.60;52.20;;;;;;;7.94;100.00;100747.22;5042957;28;20071;-90
2023/11/02 03:42:25;;;;;;;46.35;44.10;;;;;;;8.47;100.00;100734.50;5043514;28;20053;-91
2023/11/02 03:45:07;;;;;;;45.33;43.13;;;;;;;8.40;100.00;100731.00;5049459;28;20052;-90
2023/11/02 03:47:56;;;;;;;45.40;43.10;;;;;;;8.48;100.00;100717.63;5052083;28;20068;-91
2023/11/02 03:50:49;;;;;;;35.72;33.83;;;;;;;8.29;100.00;100723.53;5043989;28;20275;-90
2023/11/02 03:53:50;;;;;;;32.20;30.30;;;;;;;7.88;100.00;100750.63;5043238;28;20049;-90
2023/11/02 03:56:27;;;;;;;30.13;28.33;;;;;;;7.89;100.00;100754.91;5051837;28;20053;-90
2023/11/02 03:59:06;;;;;;;31.98;29.98;;;;;;;8.30;100.00;100743.72;5035960;28;20068;-91
2023/11/02 04:01:45;;;;;;;31.45;29.65;;;;;;;8.76;100.00;100738.00;5049429;28;20049;-91
2023/11/02 04:04:24;;;;;;;32.65;30.85;;;;;;;8.97;100.00;100745.06;5039901;28;20104;-91
2023/11/02 04:07:03;;;;;;;37.25;35.35;;;;;;;8.54;100.00;100740.69;5032772;28;20077;-91
2023/11/02 04:09:39;;;;;;;27.90;26.33;;;;;;;9.10;100.00;100740.63;5048220;28;20065;-91
2023/11/02 04:12:17;;;;;;;32.53;30.83;;;;;;;9.25;100.00;100721.97;5040412;28;20060;-90
2023/11/02 04:14:45;;;;;;;40.00;37.95;;;;;;;9.47;100.00;100720.03;5043900;28;20061;-91
2023/11/02 04:17:11;;;;;;;35.80;34.00;;;;;;;9.41;100.00;100718.19;5045505;28;20049;-91
2023/11/02 04:19:49;;;;;;;29.55;27.85;;;;;;;9.45;100.00;100698.19;5036424;28;20049;-91
2023/11/02 04:22:16;;;;;;;30.98;29.27;;;;;;;9.23;100.00;100686.91;5035612;28;20052;-90
2023/11/02 04:24:45;;;;;;;57.17;53.78;;;;;;;8.24;100.00;100697.66;5045643;28;20056;-91
2023/11/02 04:27:12;;;;;;;57.53;54.42;;;;;;;8.10;100.00;100717.06;5041295;28;20068;-90
2023/11/02 04:29:47;;;;;;;52.95;50.05;;;;;;;8.30;100.00;100718.06;5043560;28;20569;-90
2023/11/02 04:32:14;;;;;;;57.42;54.33;;;;;;;9.00;100.00;100713.69;5042489;28;20052;-92
2023/11/02 04:34:46;;;;;;;46.45;43.75;;;;;;;8.95;100.00;100724.03;5052565;28;20075;-91
2023/11/02 04:37:14;;;;;;;41.97;38.10;;;;;;;8.79;100.00;100711.13;5044712;28;20646;-91
2023/11/02 04:39:44;;;;;;;43.63;39.92;;;;;;;8.76;100.00;100688.50;5051255;28;20762;-91
2023/11/02 04:42:12;;;;;;;29.45;26.67;;;;;;;8.71;100.00;100702.34;5040692;28;20041;-90
2023/11/02 04:44:40;;;;;;;31.08;28.58;;;;;;;7.83;100.00;100718.63;5048322;28;20431;-91
2023/11/02 04:47:07;;;;;;;46.42;43.83;;;;;;;8.36;100.00;100708.53;5044684;28;20511;-91
2023/11/02 04:49:42;;;;;;;38.72;36.03;;;;;;;8.58;100.00;100715.47;5038647;28;20060;-91
2023/11/02 04:55:46;;;;;;;31.02;28.45;;;;;;;8.82;100.00;100689.53;5035634;28;20150;-91
2023/11/02 05:01:39;;;;;;;27.50;25.20;;;;;;;8.64;100.00;100695.34;5038028;28;20056;-90
2023/11/02 05:04:18;;;;;;;29.55;26.85;;;;;;;8.55;100.00;100704.44;5044734;28;20306;-91
2023/11/02 05:07:05;;;;;;;29.05;26.25;;;;;;;8.77;100.00;100699.91;5048119;28;20076;-91
2023/11/02 05:18:50;;;;;;;21.55;20.15;;;;;;;8.98;100.00;100723.66;5045853;28;20064;-91
2023/11/02 05:21:50;;;;;;;21.13;19.73;;;;;;;8.74;100.00;100730.22;5041042;28;20411;-91
2023/11/02 05:27:56;;;;;;;20.10;19.00;;;;;;;9.45;100.00;100706.16;5041442;28;20053;-92
2023/11/02 05:30:56;;;;;;;26.40;24.80;;;;;;;9.58;100.00;100718.63;5037182;28;20092;-92
2023/11/02 05:34:12;;;;;;;24.08;22.67;;;;;;;9.63;100.00;100714.38;5025331;28;20064;-92
2023/11/02 05:37:01;;;;;;;21.80;20.50;;;;;;;9.90;100.00;100710.97;5048371;28;20056;-92
2023/11/02 05:40:02;;;;;;;21.40;20.10;;;;;;;9.85;100.00;100696.47;5032112;28;20064;-91
2023/11/02 05:45:58;;;;;;;20.10;18.80;;;;;;;10.11;100.00;100715.28;4969681;28;20062;-91
2023/11/02 05:48:59;;;;;;;21.10;19.70;;;;;;;10.11;100.00;100702.03;4956909;28;20623;-92
2023/11/02 05:52:02;;;;;;;21.65;20.27;;;;;;;10.17;100.00;100710.00;4971618;28;20133;-92
2023/11/02 05:54:44;;;;;;;22.13;20.42;;;;;;;10.42;100.00;100718.19;4974012;28;20062;-92
2023/11/02 05:57:52;;;;;;;21.50;20.20;;;;;;;10.40;100.00;100722.88;5005020;28;20447;-91
2023/11/02 06:00:51;;;;;;;22.83;21.42;;;;;;;10.33;100.00;100698.19;5039154;28;20576;-91
2023/11/02 06:03:54;;;;;;;;;;;;;;;;;;;;;
2023/11/02 06:06:42;;;;;;;23.48;21.98;;;;;;;11.29;100.00;100702.06;5035325;28;20060;-91
2023/11/02 06:09:33;;;;;;;22.58;21.17;;;;;;;11.57;100.00;100720.34;5034874;28;20045;-91
2023/11/02 06:18:29;;;;;;;22.70;21.27;;;;;;;11.99;100.00;100723.44;5035672;28;20061;-91
2023/11/02 06:24:45;;;;;;;21.67;20.27;;;;;;;12.36;100.00;100727.84;5048391;28;20454;-91
2023/11/02 06:28:21;;;;;;;21.23;19.83;;;;;;;12.21;100.00;100737.19;5053708;28;20052;-91
2023/11/02 06:30:59;;;;;;;21.83;20.33;;;;;;;12.06;100.00;100717.00;5039153;28;20072;-92
2023/11/02 06:37:19;;;;;;;20.27;19.17;;;;;;;12.98;100.00;100714.59;5045355;28;20075;-92
2023/11/02 06:40:26;;;;;;;22.20;20.90;;;;;;;17.39;100.00;100706.56;5046945;28;20187;-91
2023/11/02 06:42:53;;;;;;;21.80;20.50;;;;;;;17.03;100.00;100706.13;5052981;28;20068;-91
2023/11/02 06:45:20;;;;;;;22.48;21.17;;;;;;;15.19;100.00;100712.91;5040545;28;20049;-90
2023/11/02 06:47:47;;;;;;;21.67;20.38;;;;;;;13.00;100.00;100701.00;5034588;28;20095;-90
2023/11/02 06:50:47;;;;;;;20.38;19.13;;;;;;;12.50;100.00;100711.78;5037383;28;20045;-90
2023/11/02 06:53:23;;;;;;;20.20;18.90;;;;;;;12.30;100.00;100718.06;5035280;28;20964;-90
2023/11/02 06:55:50;;;;;;;20.85;19.45;;;;;;;12.37;100.00;100710.84;5037664;28;20530;-90
2023/11/02 06:58:17;;;;;;;20.92;19.42;;;;;;;12.34;100.00;100707.78;5032985;28;20053;-90
2023/11/02 07:00:49;;;;;;;21.52;20.23;;;;;;;12.31;100.00;100719.69;5039142;28;20056;-90
2023/11/02 07:03:16;;;;;;;21.40;20.10;;;;;;;12.23;100.00;100714.66;5045368;28;20057;-90
2023/11/02 07:05:59;;;;;;;21.42;20.20;;;;;;;12.36;100.00;100698.56;5043387;28;20052;-90
2023/11/02 07:08:28;;;;;;;21.33;20.00;;;;;;;12.36;100.00;100703.88;5047531;28;20423;-89
2023/11/02 07:11:25;;;;;;;22.17;20.67;;;;;;;12.71;100.00;100703.38;5047695;28;20144;-90
2023/11/02 07:13:54;;;;;;;22.52;21.13;;;;;;;13.18;100.00;100701.00;5050114;28;20064;-90
2023/11/02 07:16:21;;;;;;;22.27;21.08;;;;;;;12.84;100.00;100695.22;5050141;28;20099;-90
2023/11/02 07:18:48;;;;;;;22.10;20.90;;;;;;;12.63;100.00;100687.66;5035810;28;20042;-90
2023/11/02 07:21:22;;;;;;;24.00;22.40;;;;;;;12.59;100.00;100687.28;5039415;28;20060;-89
2023/11/02 07:23:51;;;;;;;21.77;20.48;;;;;;;12.73;100.00;100695.16;5051676;28;20139;-90
2023/11/02 07:26:18;;;;;;;21.70;20.48;;;;;;;12.54;100.00;100683.66;5032591;28;20041;-90
2023/11/02 07:28:46;;;;;;;23.35;21.75;;;;;;;12.69;100.00;100693.97;5033556;28;20053;-90
2023/11/02 07:31:14;;;;;;;23.70;22.30;;;;;;;12.78;100.00;100695.31;5044297;28;20064;-90
2023/11/02 07:33:41;;;;;;;22.10;20.70;;;;;;;13.21;100.00;100689.09;5047601;28;20442;-89
2023/11/02 07:36:12;;;;;;;21.80;20.50;;;;;;;12.63;100.00;100693.00;5045365;28;20045;-90
2023/11/02 07:38:54;;;;;;;22.50;21.13;;;;;;;13.24;100.00;100684.13;5051415;28;20476;-90
2023/11/02 07:41:21;;;;;;;21.75;20.45;;;;;;;12.92;100.00;100685.31;5044067;28;20299;-90
2023/11/02 07:43:48;;;;;;;21.45;20.35;;;;;;;13.41;100.00;100676.34;5051676;28;20055;-90
2023/11/02 07:46:17;;;;;;;24.17;22.98;;;;;;;12.82;100.00;100675.16;5052158;28;20044;-90
2023/11/02 07:49:15;;;;;;;23.55;22.35;;;;;;;12.92;100.00;100667.47;5047222;28;20056;-90
2023/11/02 07:51:50;;;;;;;23.50;22.20;;;;;;;13.07;100.00;100664.41;5035366;28;20057;-90
2023/11/02 07:54:19;;;;;;;21.17;20.08;;;;;;;13.48;100.00;100663.72;5041310;28;20049;-90
2023/11/02 07:56:46;;;;;;;48.03;45.83;;;;;;;13.74;100.00;100651.88;5052239;28;20060;-90
2023/11/02 07:59:19;;;;;;;40.92;38.92;;;;;;;14.51;100.00;100669.75;5044372;28;20063;-90
2023/11/02 08:01:51;;;;;;;23.73;22.52;;;;;;;14.17;100.00;100664.13;5050661;28;20495;-90
2023/11/02 08:04:18;;;;;;;23.63;22.42;;;;;;;14.00;100.00;100665.84;5051240;28;20052;-90
2023/11/02 08:06:45;;;;;;;23.73;22.33;;;;;;;14.31;100.00;100663.91;5050268;28;20049;-90
2023/11/02 08:09:12;;;;;;;25.98;24.58;;;;;;;14.29;100.00;100661.47;5049744;28;20095;-89
2023/11/02 08:11:41;;;;;;;23.58;22.38;;;;;;;14.67;100.00;100657.53;5042615;28;20049;-90
2023/11/02 08:14:12;;;;;;;23.55;22.25;;;;;;;14.77;100.00;100656.97;5050375;28;20121;-89
2023/11/02 08:16:39;;;;;;;23.77;22.48;;;;;;;15.43;100.00;100655.59;5040705;28;20491;-89
2023/11/02 08:19:05;;;;;;;24.20;22.90;;;;;;;15.34;100.00;100654.38;5032127;28;20168;-90
2023/11/02 08:21:32;;;;;;;22.75;21.45;;;;;;;15.03;100.00;100651.06;5036804;28;20053;-90
2023/11/02 08:23:58;;;;;;;22.67;21.38;;;;;;;15.26;100.00;100638.69;5036992;28;20045;-90
2023/11/02 08:26:25;;;;;;;22.00;20.80;;;;;;;14.98;100.00;100640.28;5043334;28;20045;-89
2023/11/02 08:28:55;;;;;;;22.65;21.38;;;;;;;15.23;100.00;100626.59;5047760;28;20056;-90
2023/11/02 08:31:31;;;;;;;44.70;42.40;;;;;;;16.25;100.00;100627.53;5034736;28;20064;-90
2023/11/02 08:33:58;;;;;;;24.73;23.40;;;;;;;16.84;100.00;100632.38;5035072;28;20045;-90
2023/11/02 08:36:25;;;;;;;25.20;23.70;;;;;;;16.13;100.00;100633.00;5048556;28;20052;-90
2023/11/02 08:38:52;;;;;;;22.73;21.42;;;;;;;16.65;100.00;100627.28;5050865;28;20057;-89
2023/11/02 08:41:21;;;;;;;22.08;20.70;;;;;;;16.41;100.00;100637.41;5048070;28;20048;-89
2023/11/02 08:43:50;;;;;;;22.60;21.30;;;;;;;16.79;100.00;100635.00;5045800;28;20053;-89
2023/11/02 08:46:22;;;;;;;24.00;22.50;;;;;;;17.83;100.00;100626.72;5052612;28;20049;-90
2023/11/02 08:49:14;;;;;;;24.60;23.10;;;;;;;17.86;100.00;100622.72;5038779;28;20107;-90
2023/11/02 08:51:57;;;;;;;21.73;20.33;;;;;;;17.74;100.00;100622.06;5048860;28;20056;-90
2023/11/02 08:54:24;;;;;;;21.40;20.00;;;;;;;17.98;100.00;100627.94;5037253;28;20063;-89
2023/11/02 08:56:51;;;;;;;21.92;20.63;;;;;;;17.78;100.00;100631.25;5037847;28;20346;-90
2023/11/02 08:59:20;;;;;;;23.35;21.95;;;;;;;17.79;100.00;100612.19;5033693;28;20061;-90
2023/11/02 09:01:48;;;;;;;22.20;20.90;;;;;;;17.27;100.00;100620.78;5041544;28;20077;-90
2023/11/02 09:04:16;;;;;;;21.02;19.73;;;;;;;16.40;100.00;100627.75;5040627;28;20048;-89
2023/11/02 09:06:43;;;;;;;20.92;19.63;;;;;;;15.83;100.00;100627.94;5041269;28;20136;-89
2023/11/02 09:09:11;;;;;;;21.63;20.23;;;;;;;16.51;100.00;100617.16;5035294;28;20049;-90
2023/11/02 09:11:38;;;;;;;20.70;19.50;;;;;;;15.86;100.00;100616.75;5038722;28;20053;-89
2023/11/02 09:14:05;;;;;;;28.63;26.83;;;;;;;16.11;100.00;100604.81;5038625;28;20037;-89
2023/11/02 09:16:38;;;;;;;25.67;24.08;;;;;;;15.93;100.00;100601.31;5048388;28;20475;-89
2023/11/02 09:19:06;;;;;;;27.75;26.25;;;;;;;16.47;100.00;100588.16;5044332;28;20049;-90
2023/11/02 09:21:37;;;;;;;25.13;23.63;;;;;;;16.55;100.00;100586.94;5048896;28;20053;-90
2023/11/02 09:24:05;;;;;;;28.17;26.67;;;;;;;16.71;100.00;100591.44;5041395;28;20071;-89
2023/11/02 09:26:32;;;;;;;32.28;30.48;;;;;;;16.00;100.00;100595.78;5035829;28;20056;-89
2023/11/02 09:29:00;;;;;;;21.40;20.10;;;;;;;15.58;100.00;100591.63;5040333;28;20075;-89
2023/11/02 09:31:29;;;;;;;23.17;21.98;;;;;;;15.45;100.00;100599.97;5042040;28;20054;-90
2023/11/02 09:33:57;;;;;;;21.60;20.40;;;;;;;15.52;100.00;100594.44;5037112;28;20115;-90
2023/11/02 09:36:25;;;;;;;21.20;19.90;;;;;;;15.57;100.00;100590.00;5047045;28;20053;-90
2023/11/02 09:38:52;;;;;;;20.90;19.60;;;;;;;15.98;100.00;100579.97;5042438;28;20049;-89
2023/11/02 09:41:19;;;;;;;33.65;31.85;;;;;;;15.25;100.00;100578.19;5043767;28;20064;-90
2023/11/02 09:43:48;;;;;;;34.92;33.05;;;;;;;15.07;100.00;100579.22;5035359;28;20046;-90
2023/11/02 09:46:23;;;;;;;35.50;33.60;;;;;;;14.78;100.00;100568.47;5044766;28;20051;-90
2023/11/02 09:48:56;;;;;;;19.92;18.83;;;;;;;15.08;100.00;100549.53;5045186;28;20478;-90
2023/11/02 09:51:25;;;;;;;19.83;18.73;;;;;;;14.96;100.00;100553.31;5041166;28;20588;-90
2023/11/02 09:53:53;;;;;;;21.27;20.08;;;;;;;15.48;100.00;100551.28;5049371;28;20041;-89
2023/11/02 09:56:47;;;;;;;29.13;27.42;;;;;;;15.54;100.00;100547.66;5054491;28;20135;-90
2023/11/02 09:59:15;;;;;;;30.67;28.88;;;;;;;16.47;100.00;100531.88;5048290;28;20056;-90
2023/11/02 10:01:43;;;;;;;34.33;32.42;;;;;;;15.13;100.00;100530.09;5044785;28;20126;-90
2023/11/02 10:04:10;;;;;;;20.30;19.20;;;;;;;15.32;100.00;100525.34;5045846;28;20048;-89
2023/11/02 10:06:38;;;;;;;21.90;20.60;;;;;;;15.45;100.00;100511.63;5041161;28;20060;-89
2023/11/02 10:09:05;;;;;;;35.03;33.13;;;;;;;15.33;100.00;100522.41;5046603;28;20045;-90
2023/11/02 10:11:32;;;;;;;32.88;30.98;;;;;;;15.16;100.00;100516.25;5042885;28;20530;-89
2023/11/02 10:14:01;;;;;;;33.85;32.05;;;;;;;16.10;100.00;100514.78;5043664;28;20521;-89
2023/11/02 10:16:28;;;;;;;31.35;29.55;;;;;;;15.62;100.00;100505.50;5046496;28;20053;-90
2023/11/02 10:19:19;;;;;;;31.40;29.50;;;;;;;15.79;100.00;100506.28;5044341;28;20503;-90
2023/11/02 10:21:47;;;;;;;19.38;18.27;;;;;;;16.32;100.00;100498.72;5041643;28;20044;-90
2023/11/02 10:24:30;;;;;;;19.58;18.13;;;;;;;16.04;100.00;100497.84;5050530;28;20045;-90
2023/11/02 10:27:18;;;;;;;;;;;;;;;15.82;100.00;100491.59;5046685;28;20132;-90
2023/11/02 10:29:46;;;;;;;28.48;26.88;;;;;;;15.75;100.00;100497.16;5047964;28;19921;-89
2023/11/02 10:32:13;;;;;;;26.95;25.35;;;;;;;15.93;100.00;100486.16;5046899;28;20049;-89
2023/11/02 10:37:42;;;;;;;;;;;;;;;;;;;;;
2023/11/02 10:50:11;;;;;;;32.47;30.65;;;;;;;16.38;100.00;100455.66;4857016;29;20558;-90
2023/11/02 10:52:57;;;;;;;34.30;32.40;;;;;;;16.44;100.00;100462.69;4928976;28;20553;-90
2023/11/02 10:55:28;;;;;;;34.28;32.42;;;;;;;16.68;100.00;100457.84;4979021;28;20500;-89
2023/11/02 10:58:02;;;;;;;33.58;28.80;;;;;;;16.89;100.00;100466.94;4973990;28;20055;-89
2023/11/02 11:00:34;;;;;;;21.90;20.30;;;;;;;17.17;100.00;100455.13;4988538;28;20053;-90
2023/11/02 11:03:13;;;;;;;21.40;20.00;;;;;;;17.37;100.00;100456.38;5044077;28;20049;-89
2023/11/02 11:05:43;;;;;;;21.80;20.50;;;;;;;17.50;100.00;100444.38;5042808;28;20037;-90
2023/11/02 11:08:13;;;;;;;21.55;20.25;;;;;;;17.48;100.00;100455.34;5041649;28;20064;-89
2023/11/02 11:10:40;;;;;;;41.17;39.08;;;;;;;17.19;100.00;100452.19;5045543;28;20056;-89
2023/11/02 11:13:10;;;;;;;40.58;38.47;;;;;;;17.25;100.00;100445.81;5048463;28;20412;-89
2023/11/02 11:15:37;;;;;;;35.60;33.65;;;;;;;17.23;100.00;100452.47;5035965;28;20132;-89
2023/11/02 11:18:06;;;;;;;37.38;35.47;;;;;;;17.16;100.00;100442.78;5048886;28;20343;-89
2023/11/02 11:20:34;;;;;;;38.78;36.53;;;;;;;16.94;100.00;100444.72;5037886;28;20045;-89
2023/11/02 11:23:14;;;;;;;40.38;38.17;;;;;;;17.30;100.00;100443.13;5049411;28;20053;-89
2023/11/02 11:26:02;;;;;;;20.90;19.60;;;;;;;17.06;100.00;100433.81;5044058;28;20119;-89
2023/11/02 11:28:34;;;;;;;21.42;20.08;;;;;;;17.02;100.00;100427.34;5049944;28;20052;-90
2023/11/02 11:31:02;;;;;;;38.40;36.30;;;;;;;17.00;100.00;100426.78;5048820;28;20040;-90
2023/11/02 11:33:49;;;;;;;34.08;32.17;;;;;;;17.23;100.00;100429.13;5047311;28;20045;-90
2023/11/02 11:36:21;;;;;;;35.85;33.95;;;;;;;17.17;100.00;100422.91;5042112;28;20064;-89
2023/11/02 11:38:49;;;;;;;42.63;40.53;;;;;;;17.45;100.00;100420.16;5049606;28;20053;-90
2023/11/02 11:41:50;;;;;;;51.63;49.13;;;;;;;17.50;100.00;100406.78;5045423;28;20049;-89
2023/11/02 11:44:19;;;;;;;41.10;39.00;;;;;;;17.40;100.00;100402.97;4972382;28;20038;-90
2023/11/02 11:46:47;;;;;;;36.88;34.88;;;;;;;17.29;100.00;100412.00;4982188;28;20061;-89
2023/11/02 11:49:48;;;;;;;35.33;33.47;;;;;;;17.67;100.00;100410.09;5005758;28;20042;-89
2023/11/02 11:52:27;;;;;;;37.75;35.83;;;;;;;17.25;100.00;100407.41;5041942;28;20071;-89
2023/11/02 11:54:56;;;;;;;41.50;39.30;;;;;;;17.46;100.00;100402.97;5038541;28;20049;-90
2023/11/02 11:57:59;;;;;;;41.83;39.53;;;;;;;17.35;100.00;100405.59;5042541;28;20041;-89
2023/11/02 12:00:27;;;;;;;41.08;38.88;;;;;;;17.30;100.00;100394.81;5044432;28;20052;-89
2023/11/02 12:03:04;;;;;;;36.10;34.20;;;;;;;17.28;100.00;100394.28;5035865;28;20053;-90
2023/11/02 12:05:56;;;;;;;41.47;39.28;;;;;;;17.36;100.00;100384.94;5033410;28;20500;-90
2023/11/02 12:08:23;;;;;;;47.50;45.10;;;;;;;16.98;100.00;100386.03;5041354;28;20072;-89
2023/11/02 12:10:54;;;;;;;45.78;43.38;;;;;;;17.16;100.00;100378.38;5045158;28;20053;-89
2023/11/02 12:13:21;;;;;;;38.10;36.25;;;;;;;17.24;100.00;100371.69;5041212;28;20048;-90
2023/11/02 12:15:57;;;;;;;20.40;19.30;;;;;;;17.02;100.00;100373.69;5035969;28;20463;-89
2023/11/02 12:18:29;;;;;;;22.67;21.30;;;;;;;17.23;100.00;100380.81;5031607;28;20053;-90
2023/11/02 12:20:57;;;;;;;;;;;;;;;17.16;100.00;100369.53;5032200;28;20049;-89
2023/11/02 12:23:50;;;;;;;21.17;19.98;;;;;;;16.99;100.00;100363.47;5048817;28;19927;-90
2023/11/02 12:26:26;;;;;;;20.73;19.42;;;;;;;16.80;100.00;100366.56;5040182;28;20052;-89
2023/11/02 12:28:57;;;;;;;24.20;22.60;;;;;;;16.87;100.00;100366.34;5049797;28;20053;-90
2023/11/02 12:31:29;;;;;;;23.23;21.92;;;;;;;16.87;100.00;100371.69;5032742;28;20507;-90
2023/11/02 12:33:56;;;;;;;21.67;20.27;;;;;;;17.00;100.00;100365.09;5040954;28;20110;-90
2023/11/02 12:36:23;;;;;;;25.55;23.95;;;;;;;16.84;100.00;100359.59;5051026;28;20056;-90
2023/11/02 12:38:52;;;;;;;22.25;20.77;;;;;;;17.04;100.00;100358.97;5046608;28;20106;-89
2023/11/02 12:41:28;;;;;;;44.08;21.13;;;;;;;17.12;100.00;100354.97;5032025;28;20076;-90